Time;durP1;ratioP1;P1;durP2;ratioP2;P2;SDS_P1;SDS_P2;PMS_P1;PMS_P2;Temp;Humidity;BMP_temperature;BMP_pressure;BME280_temperature;BME280_humidity;BME280_pressure;Samples;Min_cycle;Max_cycle;Signal;HPM_P1;HPM_P2
2022/11/24 00:01:45;;;;;;;3.57;2.47;;;9.40;48.10;;;;;;10393942;28;20221;-69
2022/11/24 00:06:48;;;;;;;4.93;2.80;;;9.40;47.80;;;;;;10394036;28;20229;-69
2022/11/24 00:11:53;;;;;;;5.07;2.70;;;9.50;47.90;;;;;;10393576;28;20233;-69
2022/11/24 00:16:56;;;;;;;3.73;2.40;;;9.50;48.30;;;;;;10394950;28;20750;-69
2022/11/24 00:21:59;;;;;;;4.90;2.57;;;9.60;48.10;;;;;;10394208;28;20264;-69
2022/11/24 00:27:03;;;;;;;4.07;2.33;;;9.60;48.10;;;;;;10396886;28;20576;-69
2022/11/24 00:32:07;;;;;;;5.23;2.30;;;9.60;48.50;;;;;;10395982;28;20240;-69
2022/11/24 00:37:10;;;;;;;6.77;2.60;;;9.70;48.30;;;;;;10395847;28;20300;-69
2022/11/24 00:42:14;;;;;;;6.77;2.43;;;9.80;48.50;;;;;;10393702;28;20252;-69
2022/11/24 00:47:18;;;;;;;6.13;1.97;;;9.80;48.70;;;;;;10398299;28;20226;-69
2022/11/24 00:52:21;;;;;;;4.40;2.13;;;9.90;48.40;;;;;;10395901;28;20257;-69
2022/11/24 00:57:25;;;;;;;4.63;2.20;;;9.90;48.30;;;;;;10394891;28;20716;-69
2022/11/24 01:02:28;;;;;;;5.03;2.30;;;10.00;47.60;;;;;;10394952;28;20225;-69
2022/11/24 01:07:32;;;;;;;6.87;2.63;;;10.00;47.30;;;;;;10395114;28;20232;-70
2022/11/24 01:12:36;;;;;;;4.43;2.60;;;10.10;47.20;;;;;;10401737;28;20260;-67
2022/11/24 01:17:39;;;;;;;4.43;2.23;;;10.10;47.30;;;;;;10403661;28;20240;-67
2022/11/24 01:22:43;;;;;;;5.70;2.27;;;10.10;47.00;;;;;;10400885;28;20236;-67
2022/11/24 01:27:47;;;;;;;4.27;2.50;;;10.10;47.10;;;;;;10400906;28;20595;-69
2022/11/24 01:32:50;;;;;;;4.87;2.40;;;10.10;47.30;;;;;;10402619;28;20649;-69
2022/11/24 01:37:54;;;;;;;3.77;2.17;;;10.20;47.20;;;;;;10397766;28;20312;-69
2022/11/24 01:42:59;;;;;;;2.47;1.80;;;10.20;47.20;;;;;;10402254;28;20284;-69
2022/11/24 01:48:05;;;;;;;3.30;2.60;;;10.20;47.40;;;;;;10397670;28;20771;-69
2022/11/24 01:53:09;;;;;;;2.63;1.77;;;10.20;47.50;;;;;;10400020;28;21012;-69
2022/11/24 01:58:18;;;;;;;4.70;2.27;;;10.20;47.20;;;;;;10398954;28;20217;-69
2022/11/24 02:03:27;;;;;;;3.87;2.43;;;10.20;47.70;;;;;;10403000;28;20233;-69
2022/11/24 02:08:37;;;;;;;3.50;2.40;;;10.10;47.50;;;;;;10396159;28;20303;-69
2022/11/24 02:13:43;;;;;;;3.03;2.17;;;10.10;47.40;;;;;;10401597;28;20234;-74
2022/11/24 02:18:46;;;;;;;3.03;2.20;;;10.10;47.60;;;;;;10397518;28;20222;-74
2022/11/24 02:23:59;;;;;;;3.47;2.43;;;10.10;47.30;;;;;;10393858;28;20241;-74
2022/11/24 02:29:04;;;;;;;4.23;2.23;;;10.10;47.90;;;;;;10386681;28;20222;-73
2022/11/24 02:34:07;;;;;;;3.57;2.00;;;10.10;47.70;;;;;;10391519;28;20233;-74
2022/11/24 02:39:12;;;;;;;3.57;1.87;;;10.10;47.40;;;;;;10398344;28;20226;-69
2022/11/24 02:44:20;;;;;;;4.77;2.23;;;10.20;47.60;;;;;;10398545;28;20620;-69
2022/11/24 02:49:23;;;;;;;3.63;1.97;;;10.10;47.80;;;;;;10398570;28;20236;-69
2022/11/24 02:54:26;;;;;;;5.07;2.20;;;10.20;47.50;;;;;;10399728;28;20245;-69
2022/11/24 02:59:30;;;;;;;4.90;1.90;;;10.10;47.40;;;;;;10396838;28;20234;-68
2022/11/24 03:04:34;;;;;;;5.10;1.80;;;10.20;47.60;;;;;;10399076;28;20241;-69
2022/11/24 03:09:37;;;;;;;3.90;2.13;;;10.20;47.50;;;;;;10398596;28;20236;-69
2022/11/24 03:14:42;;;;;;;3.67;2.00;;;10.20;47.60;;;;;;10396931;28;20237;-69
2022/11/24 03:19:45;;;;;;;4.67;1.93;;;10.30;47.70;;;;;;10392965;28;20317;-69
2022/11/24 03:24:48;;;;;;;2.57;1.60;;;10.30;47.50;;;;;;10397041;28;20233;-69
2022/11/24 03:29:53;;;;;;;4.53;1.80;;;10.30;47.50;;;;;;10399805;28;20287;-74
2022/11/24 03:34:56;;;;;;;2.50;1.70;;;10.30;47.60;;;;;;10393492;28;20295;-74
2022/11/24 03:39:59;;;;;;;3.30;1.63;;;10.40;47.50;;;;;;10398926;28;20299;-74
2022/11/24 03:45:04;;;;;;;4.07;1.70;;;10.50;47.50;;;;;;10402770;28;20577;-73
2022/11/24 03:50:27;;;;;;;4.60;1.70;;;10.50;47.60;;;;;;10391726;28;20230;-74
2022/11/24 03:55:30;;;;;;;4.13;1.70;;;10.50;47.00;;;;;;10396897;28;20230;-74
2022/11/24 04:00:35;;;;;;;2.53;1.60;;;10.50;46.90;;;;;;10396653;28;20286;-74
2022/11/24 04:05:38;;;;;;;4.60;1.70;;;10.50;47.00;;;;;;10398051;28;20469;-74
2022/11/24 04:10:42;;;;;;;3.83;1.90;;;10.50;46.80;;;;;;10397486;28;20225;-74
2022/11/24 04:15:46;;;;;;;3.83;1.97;;;10.50;46.80;;;;;;10395401;28;20257;-69
2022/11/24 04:20:51;;;;;;;3.87;2.70;;;10.50;46.80;;;;;;10394082;28;20222;-69
2022/11/24 04:25:54;;;;;;;3.03;2.30;;;10.50;46.80;;;;;;10394226;28;20237;-69
2022/11/24 04:31:03;;;;;;;2.37;1.97;;;10.40;46.70;;;;;;10391348;28;20765;-69
2022/11/24 04:36:07;;;;;;;2.40;1.60;;;10.50;47.20;;;;;;10394547;28;20221;-74
2022/11/24 04:41:10;;;;;;;6.33;1.80;;;10.50;46.80;;;;;;10392129;28;20233;-74
2022/11/24 04:46:14;;;;;;;2.90;1.50;;;10.50;46.70;;;;;;10402026;28;20229;-74
2022/11/24 04:51:17;;;;;;;3.00;1.80;;;10.50;46.80;;;;;;10402535;28;20317;-70
2022/11/24 04:56:21;;;;;;;2.53;1.63;;;10.50;46.40;;;;;;10400153;28;20230;-69
2022/11/24 05:01:25;;;;;;;2.77;1.53;;;10.50;46.30;;;;;;10401086;28;20225;-69
2022/11/24 05:06:28;;;;;;;3.50;1.50;;;10.50;46.70;;;;;;10401439;28;20229;-67
2022/11/24 05:11:31;;;;;;;3.00;1.40;;;10.40;46.70;;;;;;10399529;28;20229;-67
2022/11/24 05:16:36;;;;;;;2.40;1.20;;;10.40;46.80;;;;;;10400737;28;20238;-67
2022/11/24 05:21:40;;;;;;;4.90;1.50;;;10.40;47.00;;;;;;10399960;28;20681;-66
2022/11/24 05:26:43;;;;;;;2.80;1.20;;;10.40;47.10;;;;;;10400770;28;20233;-69
2022/11/24 05:31:48;;;;;;;3.50;1.40;;;10.40;47.10;;;;;;10398289;28;20233;-68
2022/11/24 05:36:55;;;;;;;4.13;1.50;;;10.40;47.30;;;;;;10400273;28;20234;-69
2022/11/24 05:41:58;;;;;;;2.40;1.47;;;10.40;47.20;;;;;;10394990;28;20237;-67
2022/11/24 05:47:02;;;;;;;3.43;1.20;;;10.40;47.20;;;;;;10399158;28;20253;-70
2022/11/24 05:52:05;;;;;;;2.23;1.00;;;10.40;47.30;;;;;;10394956;28;20233;-67
2022/11/24 05:57:09;;;;;;;1.63;1.00;;;10.40;47.10;;;;;;10395804;28;20225;-67
2022/11/24 06:02:13;;;;;;;1.60;0.90;;;10.50;47.20;;;;;;10399904;28;20251;-67
2022/11/24 06:07:17;;;;;;;2.33;1.30;;;10.50;47.40;;;;;;10399872;28;20346;-67
2022/11/24 06:12:20;;;;;;;2.43;1.20;;;10.50;47.30;;;;;;10397831;28;20308;-67
2022/11/24 06:17:24;;;;;;;1.87;1.20;;;10.50;47.20;;;;;;10399316;28;20256;-68
2022/11/24 06:22:27;;;;;;;3.40;1.57;;;10.60;47.40;;;;;;10398536;28;20236;-67
2022/11/24 06:27:31;;;;;;;1.60;1.50;;;10.60;47.20;;;;;;10399669;28;20644;-68
2022/11/24 06:32:35;;;;;;;3.97;1.70;;;10.60;47.20;;;;;;10397717;28;20245;-70
2022/11/24 06:37:39;;;;;;;3.83;1.47;;;10.60;47.20;;;;;;10396120;28;20241;-67
2022/11/24 06:42:42;;;;;;;5.37;2.20;;;10.60;47.20;;;;;;10395640;28;20233;-67
2022/11/24 06:47:46;;;;;;;4.40;2.10;;;10.60;47.10;;;;;;10396812;28;20291;-67
2022/11/24 06:52:49;;;;;;;3.97;1.70;;;10.60;47.20;;;;;;10398430;28;20608;-67
2022/11/24 06:57:53;;;;;;;5.13;2.10;;;10.60;47.00;;;;;;10398200;28;20233;-67
2022/11/24 07:02:58;;;;;;;5.43;1.70;;;10.60;47.10;;;;;;10396592;28;20247;-67
2022/11/24 07:08:01;;;;;;;6.83;2.03;;;10.60;47.00;;;;;;10395461;28;20225;-67
2022/11/24 07:13:07;;;;;;;4.07;1.97;;;10.60;46.90;;;;;;10396603;28;20316;-67
2022/11/24 07:18:12;;;;;;;6.07;2.00;;;10.60;47.00;;;;;;10396819;28;20226;-67
2022/11/24 07:23:15;;;;;;;4.70;2.03;;;10.60;47.10;;;;;;10395780;28;20291;-67
2022/11/24 07:28:18;;;;;;;8.47;2.07;;;10.60;47.10;;;;;;10394814;28;20233;-67
2022/11/24 07:33:24;;;;;;;4.77;1.90;;;10.60;47.20;;;;;;10396798;28;22169;-70
2022/11/24 07:38:28;;;;;;;4.83;1.80;;;10.60;47.30;;;;;;10396362;28;20241;-70
2022/11/24 07:43:33;;;;;;;5.30;1.97;;;10.70;47.20;;;;;;10392357;28;20229;-70
2022/11/24 07:48:37;;;;;;;3.93;1.50;;;10.80;47.10;;;;;;10396165;28;20257;-70
2022/11/24 07:53:41;;;;;;;7.17;1.97;;;10.80;46.90;;;;;;10396271;28;20228;-74
2022/11/24 07:58:44;;;;;;;3.33;1.70;;;10.80;47.10;;;;;;10394431;28;20233;-67
2022/11/24 08:03:56;;;;;;;7.53;2.00;;;10.90;47.00;;;;;;10396839;28;20713;-67
2022/11/24 08:08:59;;;;;;;4.80;2.33;;;11.00;47.20;;;;;;10394883;28;20225;-67
2022/11/24 08:14:02;;;;;;;6.43;2.13;;;11.10;47.10;;;;;;10391065;28;20241;-69
2022/11/24 08:19:07;;;;;;;8.47;4.50;;;11.20;46.90;;;;;;10398483;28;20292;-69
2022/11/24 08:24:12;;;;;;;6.73;3.97;;;11.30;47.00;;;;;;10396043;28;20225;-69
2022/11/24 08:29:15;;;;;;;8.47;2.87;;;11.40;46.80;;;;;;10402277;28;20230;-69
2022/11/24 08:34:20;;;;;;;6.77;2.57;;;11.40;46.80;;;;;;10397116;28;20233;-69
2022/11/24 08:39:23;;;;;;;7.10;2.20;;;11.40;46.80;;;;;;10399119;28;20229;-71
2022/11/24 08:44:27;;;;;;;5.50;2.43;;;11.50;46.80;;;;;;10397722;28;20248;-70
2022/11/24 08:49:32;;;;;;;3.33;1.90;;;11.50;46.60;;;;;;10395094;28;20225;-70
2022/11/24 08:54:35;;;;;;;5.17;2.10;;;11.50;46.20;;;;;;10400020;28;20232;-70
2022/11/24 08:59:38;;;;;;;6.43;2.43;;;11.60;46.40;;;;;;10399124;28;20226;-70
2022/11/24 09:04:44;;;;;;;4.93;1.77;;;11.60;46.60;;;;;;10398546;28;20237;-69
2022/11/24 09:09:47;;;;;;;3.67;1.63;;;11.70;46.50;;;;;;10397993;28;20230;-69
2022/11/24 09:14:50;;;;;;;4.20;1.67;;;11.70;46.40;;;;;;10400084;28;20233;-69
2022/11/24 09:19:55;;;;;;;5.47;1.87;;;11.80;46.60;;;;;;10397750;28;20253;-69
2022/11/24 09:24:58;;;;;;;3.47;1.97;;;11.90;46.40;;;;;;10402700;28;20236;-69
2022/11/24 09:30:02;;;;;;;5.67;1.93;;;11.90;46.30;;;;;;10398851;28;20229;-69
2022/11/24 09:35:07;;;;;;;5.70;1.90;;;12.00;46.40;;;;;;10400722;28;21136;-69
2022/11/24 09:40:13;;;;;;;4.80;1.80;;;12.10;46.20;;;;;;10400075;28;20230;-69
2022/11/24 09:45:24;;;;;;;5.23;1.90;;;12.10;45.90;;;;;;10401987;28;20230;-74
2022/11/24 09:50:50;;;;;;;5.93;2.63;;;12.30;45.80;;;;;;10399632;28;20325;-74
2022/11/24 09:55:57;;;;;;;4.87;1.83;;;12.30;45.80;;;;;;10398494;28;20660;-74
2022/11/24 10:01:00;;;;;;;4.80;1.77;;;12.40;45.60;;;;;;10391616;28;20710;-74
2022/11/24 10:06:17;;;;;;;5.47;2.20;;;12.50;45.80;;;;;;10392291;28;20324;-68
2022/11/24 10:11:30;;;;;;;6.13;2.20;;;12.50;45.10;;;;;;10396495;28;20233;-68
2022/11/24 10:16:44;;;;;;;5.30;1.80;;;12.60;45.20;;;;;;10394639;28;20241;-68
2022/11/24 10:21:58;;;;;;;5.60;1.83;;;12.60;45.20;;;;;;10394036;28;20225;-68
2022/11/24 10:27:03;;;;;;;4.67;1.90;;;12.60;45.00;;;;;;10396550;28;20630;-69
2022/11/24 10:32:15;;;;;;;6.20;1.97;;;12.60;45.30;;;;;;10399190;28;20717;-68
2022/11/24 10:37:23;;;;;;;2.97;1.20;;;12.50;44.90;;;;;;10397907;28;20761;-68
2022/11/24 10:42:29;;;;;;;4.77;1.57;;;12.40;44.40;;;;;;10390662;28;20713;-69
2022/11/24 10:47:32;;;;;;;3.20;1.63;;;12.30;44.80;;;;;;10396496;28;20229;-68
2022/11/24 10:52:41;;;;;;;4.40;1.50;;;12.10;45.00;;;;;;10393681;28;20268;-68
2022/11/24 10:57:44;;;;;;;4.67;1.80;;;12.00;45.20;;;;;;10397597;28;20729;-68
2022/11/24 11:02:48;;;;;;;4.23;1.73;;;11.90;45.40;;;;;;10396944;28;20284;-69
2022/11/24 11:08:14;;;;;;;3.87;1.43;;;11.80;45.50;;;;;;10395256;28;20236;-74
2022/11/24 11:13:27;;;;;;;4.00;1.67;;;11.70;46.00;;;;;;10397555;28;20229;-68
2022/11/24 11:18:32;;;;;;;3.73;1.77;;;11.70;46.50;;;;;;10393041;28;20776;-68
2022/11/24 11:23:38;;;;;;;3.97;2.47;;;11.70;46.60;;;;;;10395856;28;20238;-68
2022/11/24 11:28:41;;;;;;;3.57;1.80;;;11.70;46.90;;;;;;10394184;28;20279;-69
2022/11/24 11:33:55;;;;;;;3.80;1.70;;;11.70;46.70;;;;;;10397454;28;20283;-75
2022/11/24 11:39:28;;;;;;;4.53;2.63;;;11.80;47.30;;;;;;10386668;28;20275;-75
2022/11/24 11:44:38;;;;;;;5.83;3.10;;;11.90;47.40;;;;;;10380992;28;20230;-75
2022/11/24 11:49:41;;;;;;;6.13;3.50;;;12.00;47.00;;;;;;10385357;28;20740;-75
2022/11/24 11:55:12;;;;;;;6.23;3.30;;;12.00;46.90;;;;;;10382369;28;20278;-74
2022/11/24 12:00:19;;;;;;;4.03;2.60;;;12.10;46.60;;;;;;10382003;28;20222;-75
2022/11/24 12:05:29;;;;;;;5.33;2.90;;;12.10;46.60;;;;;;10384051;28;20237;-74
2022/11/24 12:10:38;;;;;;;4.93;2.57;;;12.10;46.50;;;;;;10382795;28;20276;-69
2022/11/24 12:15:47;;;;;;;4.83;2.83;;;12.20;46.50;;;;;;10390272;28;20275;-69
2022/11/24 12:20:59;;;;;;;3.47;1.83;;;12.30;46.40;;;;;;10387227;28;21066;-69
2022/11/24 12:26:10;;;;;;;4.30;1.70;;;12.30;46.20;;;;;;10392894;28;20217;-73
2022/11/24 12:31:20;;;;;;;3.13;1.50;;;12.30;46.10;;;;;;10391362;28;20292;-68
2022/11/24 12:36:37;;;;;;;2.13;1.30;;;12.30;45.80;;;;;;10390319;28;20240;-69
2022/11/24 12:41:56;;;;;;;2.90;1.27;;;12.30;45.60;;;;;;10389863;28;20236;-69
2022/11/24 12:47:03;;;;;;;3.33;1.57;;;12.30;45.80;;;;;;10388383;28;20642;-69
2022/11/24 12:52:16;;;;;;;2.43;1.47;;;12.30;45.70;;;;;;10389699;28;20269;-67
2022/11/24 12:57:27;;;;;;;2.27;1.20;;;12.30;45.50;;;;;;10390290;28;20287;-68
2022/11/24 13:02:45;;;;;;;1.10;1.00;;;12.20;45.30;;;;;;10386607;28;20736;-69
2022/11/24 13:07:54;;;;;;;2.07;1.40;;;12.20;45.20;;;;;;10397088;28;20234;-69
2022/11/24 13:13:01;;;;;;;1.90;1.07;;;12.20;45.60;;;;;;10398148;28;20237;-69
2022/11/24 13:18:25;;;;;;;2.00;1.00;;;12.20;45.30;;;;;;10397645;28;20225;-69
2022/11/24 13:23:29;;;;;;;3.07;1.20;;;12.20;45.50;;;;;;10403109;28;20821;-69
2022/11/24 13:29:00;;;;;;;1.17;0.93;;;12.30;45.50;;;;;;10398515;28;20226;-69
2022/11/24 13:35:02;;;;;;;1.73;0.90;;;12.30;45.00;;;;;;10401159;28;20694;-70
2022/11/24 13:40:43;;;;;;;1.80;1.20;;;12.30;44.80;;;;;;10398297;28;20705;-69
2022/11/24 13:46:10;;;;;;;1.70;1.00;;;12.20;44.80;;;;;;10397869;28;20666;-70
2022/11/24 13:51:23;;;;;;;1.53;1.10;;;12.20;44.70;;;;;;10400551;28;20313;-70
2022/11/24 13:56:31;;;;;;;1.60;1.20;;;12.20;44.50;;;;;;10397152;28;20234;-69
2022/11/24 14:01:39;;;;;;;1.53;1.30;;;12.20;44.50;;;;;;10401666;28;20238;-69
2022/11/24 14:06:45;;;;;;;1.83;1.10;;;12.20;44.60;;;;;;10400230;28;20226;-69
2022/11/24 14:12:04;;;;;;;2.20;1.17;;;12.10;44.60;;;;;;10399210;28;20229;-69
2022/11/24 14:17:17;;;;;;;2.70;1.20;;;12.10;44.40;;;;;;10399167;28;20229;-69
2022/11/24 14:22:23;;;;;;;1.90;1.50;;;12.10;44.30;;;;;;10399338;28;20664;-69
2022/11/24 14:27:29;;;;;;;2.17;1.57;;;12.10;44.70;;;;;;10400219;28;20269;-67
2022/11/24 14:32:34;;;;;;;4.37;2.20;;;12.10;44.50;;;;;;10394874;28;20234;-67
2022/11/24 14:37:37;;;;;;;4.57;3.17;;;12.10;44.40;;;;;;10399760;28;20233;-75
2022/11/24 14:42:40;;;;;;;4.50;3.23;;;12.10;44.30;;;;;;10396397;28;20237;-75
2022/11/24 14:47:45;;;;;;;3.87;2.57;;;12.10;44.30;;;;;;10400970;28;20228;-67
2022/11/24 14:52:53;;;;;;;2.50;1.50;;;12.00;44.10;;;;;;10395062;28;20284;-69
2022/11/24 14:57:57;;;;;;;2.73;1.73;;;11.90;44.00;;;;;;10390634;28;20271;-69
2022/11/24 15:03:17;;;;;;;2.20;1.30;;;11.80;44.30;;;;;;10398938;28;20234;-69
2022/11/24 15:08:21;;;;;;;2.53;1.93;;;11.80;44.00;;;;;;10398934;28;20234;-70
2022/11/24 15:13:25;;;;;;;2.13;1.83;;;11.70;44.40;;;;;;10393403;28;20230;-76
2022/11/24 15:18:37;;;;;;;2.63;1.70;;;11.60;44.30;;;;;;10396003;28;20236;-73
2022/11/24 15:23:41;;;;;;;2.03;1.27;;;11.50;44.30;;;;;;10378314;28;20238;-75
2022/11/24 15:28:46;;;;;;;2.83;1.70;;;11.50;44.50;;;;;;10386110;28;20234;-76
2022/11/24 15:33:51;;;;;;;2.23;1.70;;;11.40;44.30;;;;;;10396953;28;20648;-76
2022/11/24 15:38:54;;;;;;;4.67;2.00;;;11.40;44.30;;;;;;10395754;28;20232;-76
2022/11/24 15:43:58;;;;;;;3.97;1.80;;;11.40;44.50;;;;;;10393444;28;20296;-76
2022/11/24 15:49:03;;;;;;;2.73;1.50;;;11.30;44.40;;;;;;10395697;28;20226;-75
2022/11/24 15:54:09;;;;;;;4.80;1.80;;;11.30;44.30;;;;;;10394877;28;20976;-72
2022/11/24 15:59:15;;;;;;;3.27;1.77;;;11.20;45.00;;;;;;10396858;28;20230;-71
2022/11/24 16:04:24;;;;;;;3.10;2.10;;;11.20;44.40;;;;;;10393903;28;20226;-71
2022/11/24 16:09:27;;;;;;;13.10;8.93;;;11.30;44.30;;;;;;10396382;28;20252;-71
2022/11/24 16:14:30;;;;;;;7.63;3.70;;;11.20;44.30;;;;;;10395853;28;20240;-71
2022/11/24 16:19:35;;;;;;;5.70;3.33;;;11.30;44.20;;;;;;10389790;28;20360;-71
2022/11/24 16:24:43;;;;;;;7.80;5.60;;;11.30;43.90;;;;;;10394306;28;20742;-71
2022/11/24 16:29:47;;;;;;;6.37;3.90;;;11.40;43.90;;;;;;10393940;28;20593;-75
2022/11/24 16:34:51;;;;;;;5.30;3.43;;;11.40;43.80;;;;;;10394410;28;20283;-75
2022/11/24 16:39:54;;;;;;;3.90;3.27;;;11.30;43.80;;;;;;10396852;28;20225;-75
2022/11/24 16:44:57;;;;;;;3.33;2.70;;;11.30;44.00;;;;;;10401372;28;20237;-69
2022/11/24 16:50:02;;;;;;;2.33;2.13;;;11.30;43.90;;;;;;10399943;28;20296;-71
2022/11/24 16:55:06;;;;;;;2.83;2.13;;;11.30;43.80;;;;;;10397747;28;20230;-71
2022/11/24 17:00:10;;;;;;;4.67;3.63;;;11.20;44.00;;;;;;10404047;28;20234;-71
2022/11/24 17:05:15;;;;;;;5.13;4.07;;;11.10;43.90;;;;;;10402715;28;20237;-71
2022/11/24 17:10:18;;;;;;;4.83;4.00;;;11.10;43.90;;;;;;10402509;28;20222;-71
2022/11/24 17:15:21;;;;;;;5.33;3.90;;;11.10;44.00;;;;;;10399487;28;20241;-71
2022/11/24 17:20:38;;;;;;;4.43;3.73;;;11.10;44.00;;;;;;10398708;28;20742;-67
2022/11/24 17:25:41;;;;;;;3.97;3.37;;;11.10;43.90;;;;;;10401035;28;20244;-67
2022/11/24 17:30:44;;;;;;;4.53;3.50;;;11.10;44.00;;;;;;10400268;28;20578;-75
2022/11/24 17:35:48;;;;;;;20.23;12.27;;;11.00;44.10;;;;;;10401236;28;20221;-67
2022/11/24 17:40:52;;;;;;;17.20;11.13;;;10.90;44.10;;;;;;10403114;28;20233;-71
2022/11/24 17:45:56;;;;;;;8.63;6.03;;;11.00;44.30;;;;;;10398749;28;20229;-76
2022/11/24 17:51:02;;;;;;;7.83;6.10;;;11.00;44.10;;;;;;10397910;28;20336;-67
2022/11/24 17:56:07;;;;;;;10.30;9.23;;;10.90;43.90;;;;;;10400178;28;20240;-69
2022/11/24 18:01:10;;;;;;;6.13;5.53;;;10.90;43.90;;;;;;10397279;28;20229;-71
2022/11/24 18:06:17;;;;;;;5.80;5.30;;;10.90;43.90;;;;;;10398142;28;20316;-71
2022/11/24 18:11:23;;;;;;;5.77;5.07;;;10.90;43.80;;;;;;10394953;28;20221;-68
2022/11/24 18:16:34;;;;;;;7.37;6.67;;;10.80;43.80;;;;;;10399818;28;20715;-76
2022/11/24 18:21:40;;;;;;;9.90;8.53;;;10.80;43.90;;;;;;10396610;28;20233;-67
2022/11/24 18:26:43;;;;;;;7.53;6.67;;;10.70;43.80;;;;;;10400383;28;20233;-75
2022/11/24 18:31:47;;;;;;;8.50;6.00;;;10.70;43.70;;;;;;10396908;28;20237;-75
2022/11/24 18:36:51;;;;;;;16.40;11.47;;;10.70;43.80;;;;;;10400587;28;20228;-75
2022/11/24 18:41:55;;;;;;;11.77;9.00;;;10.70;43.60;;;;;;10397116;28;20225;-75
2022/11/24 18:46:58;;;;;;;12.57;10.17;;;10.60;43.70;;;;;;10397279;28;20225;-76
2022/11/24 18:52:03;;;;;;;15.03;11.13;;;10.60;43.80;;;;;;10396688;28;20245;-75
2022/11/24 18:57:06;;;;;;;8.20;7.40;;;10.60;43.80;;;;;;10396042;28;20229;-75
2022/11/24 19:02:11;;;;;;;8.50;7.17;;;10.60;43.60;;;;;;10392193;28;20686;-75
2022/11/24 19:07:16;;;;;;;9.60;7.20;;;10.50;43.30;;;;;;10397296;28;20226;-76
2022/11/24 19:12:19;;;;;;;7.50;6.70;;;10.50;43.30;;;;;;10394486;28;20234;-75
2022/11/24 19:17:22;;;;;;;8.60;7.30;;;10.50;43.50;;;;;;10396075;28;20233;-75
2022/11/24 19:22:26;;;;;;;6.67;6.03;;;10.40;43.40;;;;;;10395500;28;20236;-75
2022/11/24 19:27:31;;;;;;;7.03;6.33;;;10.40;43.40;;;;;;10398667;28;20237;-75
2022/11/24 19:32:35;;;;;;;8.23;7.03;;;10.40;43.60;;;;;;10395777;28;20248;-75
2022/11/24 19:37:39;;;;;;;7.83;7.03;;;10.30;43.30;;;;;;10395562;28;20811;-75
2022/11/24 19:42:42;;;;;;;8.60;6.80;;;10.30;43.30;;;;;;10398096;28;20800;-67
2022/11/24 19:47:45;;;;;;;7.30;6.43;;;10.20;43.40;;;;;;10392011;28;20225;-68
2022/11/24 19:52:50;;;;;;;7.20;6.50;;;10.20;43.50;;;;;;10395269;28;20251;-69
2022/11/24 19:57:54;;;;;;;6.27;5.63;;;10.10;43.20;;;;;;10395747;28;20600;-69
2022/11/24 20:02:57;;;;;;;7.37;6.30;;;10.10;43.20;;;;;;10391005;28;20234;-69
2022/11/24 20:08:01;;;;;;;8.40;7.00;;;10.00;43.10;;;;;;10395619;28;20245;-69
2022/11/24 20:13:04;;;;;;;9.60;8.03;;;10.00;43.10;;;;;;10394536;28;20244;-69
2022/11/24 20:18:08;;;;;;;9.47;8.57;;;9.90;44.00;;;;;;10394975;28;20228;-70
2022/11/24 20:23:13;;;;;;;9.30;8.40;;;9.90;43.90;;;;;;10394574;28;20236;-69
2022/11/24 20:28:16;;;;;;;8.47;7.67;;;9.80;43.70;;;;;;10394688;28;20224;-69
2022/11/24 20:33:19;;;;;;;7.83;7.13;;;9.70;43.80;;;;;;10393255;28;20765;-69
2022/11/24 20:38:24;;;;;;;7.30;6.60;;;9.70;43.80;;;;;;10390725;28;20237;-71
2022/11/24 20:43:30;;;;;;;5.80;5.30;;;9.60;43.40;;;;;;10393839;28;20226;-75
2022/11/24 20:48:34;;;;;;;6.87;6.17;;;9.60;43.50;;;;;;10395460;28;20729;-75
2022/11/24 20:53:39;;;;;;;6.40;5.17;;;9.50;43.50;;;;;;10392746;28;20234;-75
2022/11/24 20:58:43;;;;;;;6.53;5.50;;;9.40;43.30;;;;;;10395012;28;20761;-75
2022/11/24 21:03:47;;;;;;;8.50;7.63;;;9.40;43.40;;;;;;10386982;28;20234;-75
2022/11/24 21:08:52;;;;;;;6.40;5.67;;;9.30;43.30;;;;;;10394080;28;20229;-75
2022/11/24 21:13:58;;;;;;;7.47;6.77;;;9.20;43.10;;;;;;10394804;28;20350;-75
2022/11/24 21:19:03;;;;;;;7.20;6.50;;;9.20;43.30;;;;;;10390676;28;20698;-75
2022/11/24 21:24:11;;;;;;;6.93;6.07;;;9.10;43.10;;;;;;10393013;28;20612;-67
2022/11/24 21:29:19;;;;;;;11.07;9.97;;;9.10;43.20;;;;;;10397272;28;20240;-69
2022/11/24 21:34:22;;;;;;;8.47;7.67;;;9.00;43.30;;;;;;10399023;28;20229;-67
2022/11/24 21:39:26;;;;;;;7.47;6.73;;;8.90;43.20;;;;;;10400499;28;20697;-67
2022/11/24 21:44:30;;;;;;;6.87;6.20;;;8.90;43.40;;;;;;10391116;28;20236;-67
2022/11/24 21:49:33;;;;;;;9.03;6.70;;;8.80;43.30;;;;;;10390667;28;20244;-71
2022/11/24 21:54:37;;;;;;;7.23;6.53;;;8.70;43.10;;;;;;10391186;28;20230;-74
2022/11/24 21:59:40;;;;;;;6.93;6.23;;;8.60;43.20;;;;;;10396501;28;20234;-75
2022/11/24 22:04:44;;;;;;;6.33;5.73;;;8.50;43.30;;;;;;10391587;28;20246;-75
2022/11/24 22:09:49;;;;;;;8.30;7.50;;;8.50;43.30;;;;;;10393606;28;20372;-68
2022/11/24 22:14:52;;;;;;;9.03;8.13;;;8.50;43.20;;;;;;10394163;28;20822;-68
2022/11/24 22:19:55;;;;;;;8.50;7.70;;;8.40;43.00;;;;;;10393265;28;20346;-68
2022/11/24 22:24:59;;;;;;;8.93;8.00;;;8.20;43.10;;;;;;10392305;28;20234;-68
2022/11/24 22:30:04;;;;;;;7.77;6.97;;;8.20;43.40;;;;;;10394799;28;20225;-68
2022/11/24 22:35:08;;;;;;;7.30;6.60;;;8.10;43.50;;;;;;10393946;28;20771;-68
2022/11/24 22:40:14;;;;;;;8.53;6.80;;;8.10;43.50;;;;;;10393454;28;20230;-68
2022/11/24 22:45:17;;;;;;;8.97;7.80;;;8.00;43.20;;;;;;10397055;28;20233;-70
2022/11/24 22:50:21;;;;;;;8.63;7.17;;;8.00;43.30;;;;;;10397388;28;20214;-70
2022/11/24 22:55:25;;;;;;;9.10;7.43;;;7.90;43.20;;;;;;10399677;28;20229;-70
2022/11/24 23:00:28;;;;;;;7.53;6.73;;;7.90;43.30;;;;;;10396932;28;20226;-70
2022/11/24 23:05:33;;;;;;;6.13;5.07;;;7.90;43.10;;;;;;10396282;28;20579;-70
2022/11/24 23:10:37;;;;;;;7.27;5.97;;;7.80;43.10;;;;;;10399449;28;20264;-70
2022/11/24 23:15:40;;;;;;;10.57;7.43;;;7.80;43.00;;;;;;10398683;28;20237;-74
2022/11/24 23:20:44;;;;;;;8.77;7.87;;;7.70;42.80;;;;;;10394914;28;20225;-67
2022/11/24 23:25:49;;;;;;;9.17;8.27;;;7.70;42.70;;;;;;10399719;28;20218;-69
2022/11/24 23:30:52;;;;;;;7.73;6.90;;;7.50;43.40;;;;;;10396677;28;20222;-67
2022/11/24 23:35:55;;;;;;;9.20;7.63;;;7.40;42.90;;;;;;10398919;28;20226;-67
2022/11/24 23:41:02;;;;;;;12.17;8.23;;;7.30;43.20;;;;;;10391691;28;20221;-66
2022/11/24 23:46:07;;;;;;;8.50;6.37;;;7.20;43.10;;;;;;10395083;28;20224;-66
2022/11/24 23:51:13;;;;;;;8.53;6.73;;;7.20;43.20;;;;;;10389787;28;20257;-67
2022/11/24 23:56:19;;;;;;;8.83;6.33;;;7.20;43.30;;;;;;10397301;28;20225;-67
